Time;durP1;ratioP1;P1;durP2;ratioP2;P2;SDS_P1;SDS_P2;PMS_P1;PMS_P2;Temp;Humidity;BMP_temperature;BMP_pressure;BME280_temperature;BME280_humidity;BME280_pressure;Samples;Min_cycle;Max_cycle;Signal;HPM_P1;HPM_P2
2023/09/07 00:00:39;;;;;;;5.10;4.60;;;19.20;99.90;;;;;;4966691;28;20105;-86
2023/09/07 00:03:05;;;;;;;5.45;4.53;;;19.20;99.90;;;;;;4979538;28;20082;-86
2023/09/07 00:05:31;;;;;;;5.75;4.85;;;19.20;99.90;;;;;;4984113;28;20646;-86
2023/09/07 00:07:57;;;;;;;8.23;4.82;;;19.10;99.90;;;;;;4981748;28;20026;-87
2023/09/07 00:10:23;;;;;;;5.57;5.07;;;19.10;99.90;;;;;;4967995;28;20037;-86
2023/09/07 00:12:49;;;;;;;5.75;4.97;;;19.10;99.90;;;;;;4980411;28;20397;-86
2023/09/07 00:15:19;;;;;;;5.38;4.68;;;19.10;99.90;;;;;;4981429;28;20023;-87
2023/09/07 00:17:45;;;;;;;4.95;4.55;;;19.00;99.90;;;;;;4981375;28;20433;-86
2023/09/07 00:20:10;;;;;;;6.57;4.82;;;19.00;99.90;;;;;;4981369;28;20023;-87
2023/09/07 00:22:37;;;;;;;6.25;4.97;;;19.00;99.90;;;;;;4987430;28;20125;-86
2023/09/07 00:25:03;;;;;;;4.85;4.43;;;19.00;99.90;;;;;;4980743;28;20023;-86
2023/09/07 00:27:29;;;;;;;5.15;4.20;;;19.00;99.90;;;;;;4986631;28;20034;-87
2023/09/07 00:29:55;;;;;;;5.00;4.50;;;19.00;99.90;;;;;;4981554;28;20026;-86
2023/09/07 00:32:21;;;;;;;6.45;4.30;;;18.90;99.90;;;;;;4982975;28;20039;-86
2023/09/07 00:34:47;;;;;;;5.28;4.78;;;18.90;99.90;;;;;;4983379;28;20022;-87
2023/09/07 00:37:12;;;;;;;4.60;4.18;;;18.90;99.90;;;;;;4974847;28;20027;-86
2023/09/07 00:39:38;;;;;;;5.00;4.60;;;18.90;99.90;;;;;;4980206;28;20057;-86
2023/09/07 00:42:04;;;;;;;4.85;4.45;;;18.90;99.90;;;;;;4981973;28;20111;-86
2023/09/07 00:44:30;;;;;;;5.15;4.65;;;18.80;99.90;;;;;;4990962;28;20019;-84
2023/09/07 00:46:56;;;;;;;4.32;3.95;;;18.80;99.90;;;;;;4985265;28;20525;-86
2023/09/07 00:49:23;;;;;;;4.88;4.38;;;18.80;99.90;;;;;;4979912;28;20035;-86
2023/09/07 00:51:48;;;;;;;4.22;3.92;;;18.80;99.90;;;;;;4978425;28;20030;-86
2023/09/07 00:54:14;;;;;;;5.18;4.18;;;18.80;99.90;;;;;;4981531;28;20022;-86
2023/09/07 00:56:41;;;;;;;4.82;4.43;;;18.70;99.90;;;;;;4978017;28;20458;-87
2023/09/07 00:59:07;;;;;;;5.25;4.78;;;18.70;99.90;;;;;;4979931;28;20113;-86
2023/09/07 01:01:34;;;;;;;4.68;4.28;;;18.70;99.90;;;;;;4975469;28;20039;-86
2023/09/07 01:04:00;;;;;;;4.70;4.20;;;18.60;99.90;;;;;;4981520;28;20023;-87
2023/09/07 01:06:35;;;;;;;4.45;4.05;;;18.60;99.90;;;;;;4988369;28;20508;-86
2023/09/07 01:09:07;;;;;;;4.28;3.88;;;18.60;99.90;;;;;;4980578;28;20026;-86
2023/09/07 01:11:37;;;;;;;4.65;3.83;;;18.60;99.90;;;;;;4975980;28;20679;-86
2023/09/07 01:14:04;;;;;;;4.95;4.55;;;18.50;99.90;;;;;;4985632;28;20081;-86
2023/09/07 01:16:30;;;;;;;4.28;3.88;;;18.50;99.90;;;;;;4971531;28;20034;-86
2023/09/07 01:18:57;;;;;;;5.45;4.95;;;18.50;99.90;;;;;;4975589;28;20014;-86
2023/09/07 01:21:23;;;;;;;4.40;3.97;;;18.40;99.90;;;;;;4979507;28;20026;-86
2023/09/07 01:23:49;;;;;;;3.92;3.53;;;18.40;99.90;;;;;;4991082;28;20018;-86
2023/09/07 01:26:15;;;;;;;5.15;3.92;;;18.40;99.90;;;;;;4984931;28;20026;-86
2023/09/07 01:28:41;;;;;;;3.95;3.65;;;18.30;99.90;;;;;;4976051;28;20075;-86
2023/09/07 01:31:07;;;;;;;4.88;4.07;;;18.30;99.90;;;;;;4981528;28;20058;-86
2023/09/07 01:33:33;;;;;;;7.18;4.82;;;18.20;99.90;;;;;;4987477;28;20038;-86
2023/09/07 01:35:58;;;;;;;5.35;4.85;;;18.20;99.90;;;;;;4973017;28;20060;-86
2023/09/07 01:38:24;;;;;;;5.22;4.68;;;18.10;99.90;;;;;;4976413;28;20046;-86
2023/09/07 01:40:49;;;;;;;4.65;4.25;;;18.10;99.90;;;;;;4972737;28;20541;-86
2023/09/07 01:43:15;;;;;;;4.22;3.88;;;18.10;99.90;;;;;;4984158;28;20089;-86
2023/09/07 01:45:40;;;;;;;4.50;4.07;;;18.10;99.90;;;;;;4985746;28;20088;-86
2023/09/07 01:48:10;;;;;;;4.80;4.22;;;18.10;99.90;;;;;;4976867;28;20118;-86
2023/09/07 01:50:36;;;;;;;4.88;4.38;;;18.10;99.90;;;;;;4990279;28;20093;-86
2023/09/07 01:53:04;;;;;;;4.38;3.97;;;18.00;99.90;;;;;;4978030;28;20148;-86
2023/09/07 01:55:30;;;;;;;4.38;3.97;;;18.00;99.90;;;;;;4976199;28;20654;-87
2023/09/07 01:57:55;;;;;;;4.95;4.55;;;18.00;99.90;;;;;;4985753;28;20111;-86
2023/09/07 02:00:21;;;;;;;5.20;4.68;;;18.00;99.90;;;;;;4971011;28;20511;-86
2023/09/07 02:02:47;;;;;;;4.03;3.67;;;18.00;99.90;;;;;;4977044;28;20015;-86
2023/09/07 02:05:12;;;;;;;4.65;4.05;;;18.00;99.90;;;;;;4978523;28;20027;-85
2023/09/07 02:07:38;;;;;;;4.97;4.45;;;18.00;99.90;;;;;;4982125;28;20033;-86
2023/09/07 02:10:04;;;;;;;4.28;3.90;;;18.00;99.90;;;;;;4978154;28;20062;-86
2023/09/07 02:12:30;;;;;;;4.55;4.15;;;18.00;99.90;;;;;;4966706;28;20078;-86
2023/09/07 02:14:56;;;;;;;4.63;4.22;;;18.00;99.90;;;;;;4984097;28;20022;-86
2023/09/07 02:17:21;;;;;;;6.07;4.28;;;17.90;99.90;;;;;;4978591;28;20030;-86
2023/09/07 02:19:50;;;;;;;4.57;4.18;;;17.90;99.90;;;;;;4987003;28;20019;-86
2023/09/07 02:22:15;;;;;;;5.13;4.55;;;17.90;99.90;;;;;;4986550;28;20480;-86
2023/09/07 02:24:41;;;;;;;5.30;4.85;;;17.90;99.90;;;;;;4987344;28;20054;-86
2023/09/07 02:27:06;;;;;;;5.00;4.35;;;17.80;99.90;;;;;;4981298;28;20513;-86
2023/09/07 02:29:32;;;;;;;4.75;4.35;;;17.80;99.90;;;;;;4987528;28;20042;-86
2023/09/07 02:31:58;;;;;;;5.47;4.70;;;17.80;99.90;;;;;;4981609;28;20034;-86
2023/09/07 02:34:23;;;;;;;5.32;4.82;;;17.70;99.90;;;;;;4977944;28;20034;-87
2023/09/07 02:36:49;;;;;;;5.13;4.63;;;17.70;99.90;;;;;;4964366;28;20430;-87
2023/09/07 02:39:14;;;;;;;5.50;4.15;;;17.60;99.90;;;;;;4980771;28;20510;-86
2023/09/07 02:41:40;;;;;;;4.75;4.35;;;17.60;99.90;;;;;;4973679;28;20065;-86
2023/09/07 02:44:06;;;;;;;5.38;4.88;;;17.60;99.90;;;;;;4972786;28;20449;-87
2023/09/07 02:46:31;;;;;;;9.48;5.68;;;17.60;99.90;;;;;;4980380;28;20134;-87
2023/09/07 02:48:57;;;;;;;5.72;4.88;;;17.60;99.90;;;;;;4978310;28;20532;-87
2023/09/07 02:51:26;;;;;;;5.20;4.70;;;17.60;99.90;;;;;;4972442;28;20039;-86
2023/09/07 02:53:53;;;;;;;6.10;5.45;;;17.60;99.90;;;;;;4972805;28;20038;-88
2023/09/07 02:56:18;;;;;;;8.38;4.95;;;17.60;99.90;;;;;;4974738;28;20374;-85
2023/09/07 02:58:45;;;;;;;5.75;5.25;;;17.60;99.90;;;;;;4988871;28;20026;-86
2023/09/07 03:01:10;;;;;;;7.28;6.63;;;17.60;99.90;;;;;;4979302;28;20541;-86
2023/09/07 03:03:36;;;;;;;6.32;5.72;;;17.60;99.90;;;;;;4984816;28;20030;-87
2023/09/07 03:06:13;;;;;;;6.47;5.80;;;17.60;99.90;;;;;;4978587;28;20054;-85
2023/09/07 03:08:40;;;;;;;6.07;5.47;;;17.50;99.90;;;;;;4984937;28;20031;-87
2023/09/07 03:11:06;;;;;;;5.93;5.13;;;17.50;99.90;;;;;;4984923;28;20030;-86
2023/09/07 03:13:32;;;;;;;6.80;6.20;;;17.50;99.90;;;;;;4976871;28;20035;-86
2023/09/07 03:15:58;;;;;;;6.13;5.63;;;17.50;99.90;;;;;;4990171;28;20465;-86
2023/09/07 03:18:24;;;;;;;6.80;6.20;;;17.50;99.90;;;;;;4977556;28;20110;-87
2023/09/07 03:20:51;;;;;;;6.22;5.72;;;17.50;99.90;;;;;;4972870;28;20057;-86
2023/09/07 03:23:16;;;;;;;5.13;4.72;;;17.50;99.90;;;;;;4979402;28;20161;-86
2023/09/07 03:25:42;;;;;;;5.65;5.15;;;17.50;99.90;;;;;;4987431;28;20814;-87
2023/09/07 03:28:07;;;;;;;7.30;6.60;;;17.50;99.90;;;;;;4991429;28;20110;-89
2023/09/07 03:30:33;;;;;;;6.55;5.70;;;17.50;99.90;;;;;;4983796;28;20398;-87
2023/09/07 03:32:59;;;;;;;8.57;6.53;;;17.50;99.90;;;;;;4977940;28;20026;-87
2023/09/07 03:35:25;;;;;;;7.93;6.47;;;17.50;99.90;;;;;;4976272;28;20434;-86
2023/09/07 03:37:51;;;;;;;6.72;5.88;;;17.50;99.90;;;;;;4981439;28;20109;-87
2023/09/07 03:40:17;;;;;;;6.13;5.63;;;17.40;99.90;;;;;;4990467;28;20769;-88
2023/09/07 03:42:43;;;;;;;6.60;6.00;;;17.40;99.90;;;;;;4990784;28;20168;-86
2023/09/07 03:45:09;;;;;;;6.50;5.90;;;17.30;99.90;;;;;;4978145;28;20026;-87
2023/09/07 03:47:35;;;;;;;6.63;5.85;;;17.30;99.90;;;;;;4976512;28;20038;-86
2023/09/07 03:50:00;;;;;;;6.40;5.80;;;17.30;99.90;;;;;;4979220;28;20022;-86
2023/09/07 03:52:27;;;;;;;7.20;6.53;;;17.30;99.90;;;;;;4980859;28;20045;-86
2023/09/07 03:54:56;;;;;;;7.18;6.47;;;17.30;99.90;;;;;;4981796;28;20076;-86
2023/09/07 03:57:22;;;;;;;6.72;6.07;;;17.30;99.90;;;;;;4979747;28;20041;-86
2023/09/07 03:59:48;;;;;;;6.10;5.50;;;17.20;99.90;;;;;;4978184;28;20019;-87
2023/09/07 04:02:14;;;;;;;7.47;5.72;;;17.20;99.90;;;;;;4990542;28;20283;-86
2023/09/07 04:04:40;;;;;;;7.22;6.63;;;17.20;99.90;;;;;;4972821;28;20487;-87
2023/09/07 04:07:06;;;;;;;7.30;6.60;;;17.20;99.90;;;;;;4986371;28;20030;-86
2023/09/07 04:09:31;;;;;;;6.70;6.00;;;17.10;99.90;;;;;;4976401;28;20031;-87
2023/09/07 04:11:57;;;;;;;7.60;6.60;;;17.20;99.90;;;;;;4978341;28;20027;-86
2023/09/07 04:14:23;;;;;;;7.60;6.53;;;17.10;99.90;;;;;;4982830;28;20053;-86
2023/09/07 04:16:48;;;;;;;6.55;5.93;;;17.10;99.90;;;;;;4978501;28;20030;-86
2023/09/07 04:19:14;;;;;;;7.90;6.30;;;17.20;99.90;;;;;;4980077;28;20110;-86
2023/09/07 04:21:39;;;;;;;7.53;6.68;;;17.10;99.90;;;;;;4982392;28;20039;-86
2023/09/07 04:24:05;;;;;;;6.85;6.15;;;17.10;99.90;;;;;;4978152;28;20057;-87
2023/09/07 04:26:31;;;;;;;9.20;6.30;;;17.10;99.90;;;;;;4988106;28;20069;-86
2023/09/07 04:28:56;;;;;;;9.38;6.72;;;17.10;99.90;;;;;;4979103;28;20031;-87
2023/09/07 04:31:24;;;;;;;6.18;5.55;;;17.10;99.90;;;;;;4976770;28;20034;-86
2023/09/07 04:33:49;;;;;;;6.40;5.80;;;17.10;99.90;;;;;;4987687;28;20093;-86
2023/09/07 04:36:15;;;;;;;6.28;5.70;;;17.10;99.90;;;;;;4976759;28;20498;-86
2023/09/07 04:38:41;;;;;;;7.03;6.43;;;17.10;99.90;;;;;;4987496;28;20030;-86
2023/09/07 04:41:12;;;;;;;6.60;6.00;;;17.10;99.90;;;;;;4991413;28;20028;-86
2023/09/07 04:43:45;;;;;;;7.05;6.43;;;17.10;99.90;;;;;;4983708;28;20073;-87
2023/09/07 04:46:14;;;;;;;8.27;6.55;;;17.00;99.90;;;;;;4979423;28;20117;-86
2023/09/07 04:48:41;;;;;;;6.28;5.78;;;17.00;99.90;;;;;;4981377;28;20502;-86
2023/09/07 04:51:09;;;;;;;7.65;6.63;;;17.00;99.90;;;;;;4977356;28;20023;-86
2023/09/07 04:53:37;;;;;;;6.53;5.90;;;17.00;99.90;;;;;;4972970;28;20517;-86
2023/09/07 04:56:04;;;;;;;6.55;6.03;;;17.00;99.90;;;;;;4979142;28;20498;-87
2023/09/07 04:58:29;;;;;;;7.10;6.40;;;17.00;99.90;;;;;;4981619;28;20177;-87
2023/09/07 05:01:02;;;;;;;6.97;6.25;;;17.00;99.90;;;;;;4987467;28;20470;-88
2023/09/07 05:03:27;;;;;;;6.75;6.05;;;17.00;99.90;;;;;;4993413;28;20041;-86
2023/09/07 05:05:53;;;;;;;7.03;6.35;;;17.00;99.90;;;;;;4983764;28;20022;-86
2023/09/07 05:08:19;;;;;;;7.20;6.30;;;17.00;99.90;;;;;;4985260;28;20026;-85
2023/09/07 05:10:45;;;;;;;7.20;6.50;;;17.00;99.90;;;;;;4986659;28;20079;-86
2023/09/07 05:13:10;;;;;;;6.22;5.70;;;17.00;99.90;;;;;;4983106;28;20039;-85
2023/09/07 05:15:36;;;;;;;6.55;5.95;;;17.00;99.90;;;;;;4991175;28;20030;-87
2023/09/07 05:18:01;;;;;;;8.38;6.50;;;17.00;99.90;;;;;;4988628;28;20023;-85
2023/09/07 05:20:30;;;;;;;7.32;6.63;;;17.00;99.90;;;;;;4975274;28;20031;-86
2023/09/07 05:22:56;;;;;;;7.95;7.13;;;17.00;99.90;;;;;;4967912;28;20591;-86
2023/09/07 05:25:22;;;;;;;6.57;5.97;;;17.00;99.90;;;;;;4979431;28;20085;-88
2023/09/07 05:27:48;;;;;;;7.63;6.28;;;17.00;99.90;;;;;;4972032;28;20015;-86
2023/09/07 05:30:14;;;;;;;6.68;6.07;;;16.90;99.90;;;;;;4971137;28;20026;-85
2023/09/07 05:32:41;;;;;;;7.07;6.30;;;16.90;99.90;;;;;;4972928;28;20026;-85
2023/09/07 05:35:07;;;;;;;7.78;6.45;;;17.00;99.90;;;;;;4975928;28;20109;-87
2023/09/07 05:37:33;;;;;;;8.48;6.30;;;17.00;99.90;;;;;;4971296;28;20061;-86
2023/09/07 05:39:58;;;;;;;6.35;5.75;;;17.00;99.90;;;;;;4981022;28;20534;-86
2023/09/07 05:42:25;;;;;;;7.55;6.20;;;17.00;99.90;;;;;;4987782;28;20026;-85
2023/09/07 05:44:51;;;;;;;6.85;6.20;;;17.00;99.90;;;;;;4971549;28;20019;-86
2023/09/07 05:47:17;;;;;;;7.10;5.90;;;17.00;99.90;;;;;;4970948;28;20045;-86
2023/09/07 05:49:43;;;;;;;6.65;6.05;;;17.00;99.90;;;;;;4976881;28;20027;-85
2023/09/07 05:52:08;;;;;;;6.47;5.88;;;17.00;99.90;;;;;;4968457;28;20038;-86
2023/09/07 05:54:34;;;;;;;8.40;6.03;;;17.00;99.90;;;;;;4979164;28;20041;-86
2023/09/07 05:56:59;;;;;;;6.93;6.32;;;17.00;99.90;;;;;;4987521;28;20019;-86
2023/09/07 05:59:25;;;;;;;6.97;6.28;;;17.00;99.90;;;;;;4975389;28;20027;-85
2023/09/07 06:01:51;;;;;;;6.35;5.70;;;17.00;99.90;;;;;;4983093;28;20069;-86
2023/09/07 06:04:16;;;;;;;7.82;6.45;;;17.00;99.90;;;;;;4971547;28;20058;-86
2023/09/07 06:06:42;;;;;;;6.22;5.63;;;17.10;99.90;;;;;;4971941;28;20054;-87
2023/09/07 06:09:07;;;;;;;6.75;6.15;;;17.10;99.90;;;;;;4984246;28;20023;-88
2023/09/07 06:11:34;;;;;;;6.68;6.07;;;17.10;99.90;;;;;;5005344;28;20050;-88
2023/09/07 06:14:00;;;;;;;8.35;6.40;;;17.10;99.90;;;;;;4999230;28;20062;-87
2023/09/07 06:16:25;;;;;;;7.88;6.18;;;17.10;99.90;;;;;;4973005;28;20621;-85
2023/09/07 06:18:51;;;;;;;7.07;6.22;;;17.10;99.90;;;;;;4975607;28;20030;-86
2023/09/07 06:21:16;;;;;;;6.45;5.88;;;17.20;99.90;;;;;;4987631;28;20030;-86
2023/09/07 06:23:43;;;;;;;6.90;6.25;;;17.20;99.90;;;;;;4985640;28;20571;-86
2023/09/07 06:26:08;;;;;;;7.05;6.30;;;17.20;99.90;;;;;;4988295;28;20026;-86
2023/09/07 06:28:34;;;;;;;6.32;5.72;;;17.30;99.90;;;;;;4989845;28;20514;-86
2023/09/07 06:30:59;;;;;;;7.38;6.68;;;17.30;99.90;;;;;;4986573;28;20112;-86
2023/09/07 06:33:25;;;;;;;6.70;6.10;;;17.40;99.90;;;;;;4983680;28;20533;-86
2023/09/07 06:35:51;;;;;;;6.93;6.28;;;17.40;99.90;;;;;;4974355;28;20019;-88
2023/09/07 06:38:16;;;;;;;8.13;5.65;;;17.50;99.90;;;;;;4971106;28;20050;-86
2023/09/07 06:40:48;;;;;;;7.40;6.50;;;17.50;99.90;;;;;;4980962;28;20029;-84
2023/09/07 06:43:13;;;;;;;6.20;5.70;;;17.50;99.90;;;;;;4980717;28;20458;-85
2023/09/07 06:45:39;;;;;;;5.78;5.28;;;17.60;99.90;;;;;;4961105;28;20030;-89
2023/09/07 06:48:04;;;;;;;5.80;5.20;;;17.70;99.90;;;;;;4977712;28;20605;-86
2023/09/07 06:50:30;;;;;;;6.32;5.72;;;17.80;99.90;;;;;;4988336;28;20085;-87
2023/09/07 06:52:56;;;;;;;6.05;5.55;;;17.80;99.90;;;;;;4972778;28;20057;-86
2023/09/07 06:55:21;;;;;;;6.50;5.32;;;17.90;99.90;;;;;;4970607;28;20107;-86
2023/09/07 06:57:47;;;;;;;7.13;6.53;;;17.90;99.90;;;;;;4970662;28;20022;-85
2023/09/07 07:00:13;;;;;;;6.32;5.72;;;18.00;99.90;;;;;;4969880;28;20402;-86
2023/09/07 07:02:39;;;;;;;8.27;5.93;;;18.10;99.90;;;;;;4975923;28;20030;-87
2023/09/07 07:05:05;;;;;;;6.53;5.93;;;18.20;99.90;;;;;;4970397;28;20035;-85
2023/09/07 07:07:31;;;;;;;5.82;5.18;;;18.30;99.90;;;;;;4967157;28;20035;-86
2023/09/07 07:09:56;;;;;;;6.15;5.50;;;18.40;99.90;;;;;;4969140;28;20442;-86
2023/09/07 07:12:22;;;;;;;6.10;5.53;;;18.50;99.90;;;;;;4992902;28;20101;-86
2023/09/07 07:14:47;;;;;;;5.93;5.35;;;18.70;99.90;;;;;;4986236;28;20530;-86
2023/09/07 07:17:13;;;;;;;6.28;5.68;;;18.80;99.90;;;;;;4993609;28;20030;-87
2023/09/07 07:19:39;;;;;;;6.35;5.75;;;18.90;99.90;;;;;;4994169;28;20026;-85
2023/09/07 07:22:04;;;;;;;6.10;5.60;;;19.10;99.90;;;;;;4980762;28;20076;-85
2023/09/07 07:24:30;;;;;;;5.68;5.18;;;19.20;99.90;;;;;;4988398;28;20362;-83
2023/09/07 07:26:55;;;;;;;5.88;5.07;;;19.40;99.90;;;;;;4979819;28;20507;-82
2023/09/07 07:29:21;;;;;;;6.05;5.45;;;19.60;99.90;;;;;;4982080;28;20030;-81
2023/09/07 07:31:46;;;;;;;5.63;5.00;;;19.80;99.90;;;;;;4993765;28;20038;-82
2023/09/07 07:34:12;;;;;;;5.57;4.65;;;19.90;99.90;;;;;;4975396;28;20023;-82
2023/09/07 07:36:38;;;;;;;5.47;4.97;;;20.10;99.90;;;;;;4990385;28;20073;-81
2023/09/07 07:39:06;;;;;;;4.70;4.30;;;20.30;99.90;;;;;;4978369;28;20027;-83
2023/09/07 07:41:32;;;;;;;5.53;4.60;;;20.40;99.90;;;;;;4976306;28;20034;-82
2023/09/07 07:43:58;;;;;;;5.28;4.78;;;20.50;99.90;;;;;;4985190;28;20100;-82
2023/09/07 07:46:23;;;;;;;4.30;3.90;;;20.70;99.90;;;;;;4977206;28;20023;-82
2023/09/07 07:48:49;;;;;;;5.05;4.65;;;20.90;99.90;;;;;;4972001;28;20019;-82
2023/09/07 07:51:14;;;;;;;5.38;4.88;;;21.00;99.90;;;;;;4982955;28;20030;-82
2023/09/07 07:53:40;;;;;;;4.85;4.45;;;21.20;99.90;;;;;;4979274;28;20329;-82
2023/09/07 07:56:13;;;;;;;4.53;4.13;;;21.20;99.90;;;;;;4985589;28;20033;-82
2023/09/07 07:58:39;;;;;;;5.03;4.32;;;21.40;99.90;;;;;;4992155;28;20153;-83
2023/09/07 08:01:16;;;;;;;5.57;4.70;;;21.50;99.90;;;;;;4992113;28;20030;-82
2023/09/07 08:03:42;;;;;;;5.05;4.63;;;21.60;99.90;;;;;;4975901;28;20031;-82
2023/09/07 08:06:08;;;;;;;4.90;3.70;;;21.80;99.90;;;;;;4983651;28;20052;-82
2023/09/07 08:08:34;;;;;;;4.43;4.05;;;21.90;99.90;;;;;;4992409;28;20501;-82
2023/09/07 08:11:04;;;;;;;5.63;4.10;;;22.00;99.90;;;;;;4986016;28;20392;-82
2023/09/07 08:13:30;;;;;;;4.78;4.32;;;22.10;99.90;;;;;;4991246;28;20030;-82
2023/09/07 08:15:55;;;;;;;5.10;4.53;;;22.20;99.90;;;;;;4979879;28;20033;-82
2023/09/07 08:18:23;;;;;;;5.70;4.47;;;22.30;99.90;;;;;;4985306;28;20046;-82
2023/09/07 08:20:49;;;;;;;4.40;3.65;;;22.40;99.90;;;;;;4976528;28;20019;-82
2023/09/07 08:23:14;;;;;;;7.35;4.47;;;22.50;99.90;;;;;;4978529;28;20385;-80
2023/09/07 08:25:44;;;;;;;5.32;4.05;;;22.50;99.90;;;;;;4975426;28;20043;-82
2023/09/07 08:28:10;;;;;;;4.80;4.40;;;22.60;99.90;;;;;;4973504;28;20110;-82
2023/09/07 08:30:36;;;;;;;4.20;3.88;;;22.70;99.90;;;;;;4981338;28;20180;-82
2023/09/07 08:33:05;;;;;;;5.57;4.22;;;22.70;99.90;;;;;;4987295;28;20018;-82
2023/09/07 08:35:35;;;;;;;7.40;3.65;;;22.80;99.90;;;;;;4983761;28;20026;-83
2023/09/07 08:38:01;;;;;;;6.20;4.13;;;22.90;99.90;;;;;;4978756;28;20027;-81
2023/09/07 08:40:27;;;;;;;4.70;4.28;;;22.90;99.90;;;;;;5003929;28;20197;-83
2023/09/07 08:42:53;;;;;;;4.43;4.03;;;23.00;99.90;;;;;;4982035;28;20085;-83
2023/09/07 08:45:22;;;;;;;5.50;4.22;;;23.00;99.90;;;;;;4987203;28;20026;-82
2023/09/07 08:47:49;;;;;;;4.95;4.32;;;23.10;99.90;;;;;;4981105;28;20057;-83
2023/09/07 08:50:17;;;;;;;4.57;4.18;;;23.10;99.90;;;;;;4989278;28;20046;-82
2023/09/07 08:52:45;;;;;;;5.78;4.20;;;23.20;99.90;;;;;;4992700;28;20018;-83
2023/09/07 08:55:12;;;;;;;6.13;4.30;;;23.30;99.90;;;;;;4995408;28;20122;-82
2023/09/07 08:57:37;;;;;;;4.85;4.15;;;23.30;99.90;;;;;;4999796;28;20035;-83
2023/09/07 09:00:09;;;;;;;4.60;4.15;;;23.40;99.90;;;;;;4992392;28;20015;-84
2023/09/07 09:02:36;;;;;;;4.18;3.58;;;23.40;99.90;;;;;;4982446;28;20122;-84
2023/09/07 09:05:04;;;;;;;4.05;3.70;;;23.50;99.90;;;;;;4986954;28;20029;-84
2023/09/07 09:07:30;;;;;;;5.30;4.53;;;23.60;99.90;;;;;;4989620;28;20634;-83
2023/09/07 09:10:06;;;;;;;5.00;3.90;;;23.60;99.90;;;;;;4986105;28;20070;-83
2023/09/07 09:12:32;;;;;;;4.65;4.25;;;23.70;99.90;;;;;;4975194;28;20211;-83
2023/09/07 09:15:00;;;;;;;4.93;4.22;;;23.70;99.90;;;;;;4979311;28;20057;-84
2023/09/07 09:17:26;;;;;;;6.40;4.20;;;23.80;99.90;;;;;;4972059;28;20023;-83
2023/09/07 09:19:51;;;;;;;4.22;3.83;;;23.90;99.90;;;;;;4995052;28;20037;-83
2023/09/07 09:22:17;;;;;;;6.05;3.90;;;24.00;99.90;;;;;;4982046;28;20070;-84
2023/09/07 09:24:42;;;;;;;4.80;3.80;;;24.00;99.90;;;;;;4987984;28;20305;-84
2023/09/07 09:27:08;;;;;;;4.78;3.75;;;24.00;99.90;;;;;;4979135;28;20030;-83
2023/09/07 09:29:34;;;;;;;4.38;3.90;;;24.10;99.90;;;;;;4981835;28;20035;-83
2023/09/07 09:32:04;;;;;;;4.47;4.07;;;24.10;99.90;;;;;;4982476;28;20106;-84
2023/09/07 09:34:34;;;;;;;4.07;3.50;;;24.20;99.90;;;;;;4979635;28;20019;-84
2023/09/07 09:37:03;;;;;;;4.15;3.75;;;24.20;99.90;;;;;;4982093;28;20121;-84
2023/09/07 09:39:29;;;;;;;8.70;4.03;;;24.30;99.90;;;;;;4983461;28;20042;-83
2023/09/07 09:41:55;;;;;;;4.05;3.72;;;24.30;99.90;;;;;;4980174;28;20031;-83
2023/09/07 09:44:25;;;;;;;3.67;3.38;;;24.40;99.90;;;;;;4984810;28;20045;-80
2023/09/07 09:46:53;;;;;;;4.13;3.50;;;24.50;99.90;;;;;;4986389;28;20030;-82
2023/09/07 09:49:20;;;;;;;4.18;3.78;;;24.50;99.90;;;;;;4986095;28;20085;-83
2023/09/07 09:51:49;;;;;;;5.60;3.28;;;24.60;99.90;;;;;;4988246;28;20050;-83
2023/09/07 09:54:16;;;;;;;3.92;3.47;;;24.60;99.90;;;;;;4976384;28;20033;-82
2023/09/07 09:56:42;;;;;;;5.07;3.72;;;24.60;99.90;;;;;;4979970;28;20053;-82
2023/09/07 09:59:07;;;;;;;3.60;3.33;;;24.70;99.90;;;;;;4983353;28;20014;-82
2023/09/07 10:01:46;;;;;;;3.70;3.35;;;24.80;99.90;;;;;;4970761;28;20054;-84
2023/09/07 10:04:14;;;;;;;4.00;3.40;;;24.80;99.90;;;;;;4982070;28;20014;-82
2023/09/07 10:06:54;;;;;;;3.45;3.15;;;24.80;99.90;;;;;;4994387;28;20011;-83
2023/09/07 10:09:20;;;;;;;3.53;2.92;;;24.90;99.90;;;;;;4994131;28;20015;-85
2023/09/07 10:11:54;;;;;;;3.67;3.38;;;24.90;99.90;;;;;;4982272;28;20483;-83
2023/09/07 10:14:20;;;;;;;4.03;3.63;;;24.90;99.90;;;;;;4975842;28;20029;-82
2023/09/07 10:16:48;;;;;;;4.82;3.25;;;24.90;99.90;;;;;;4969814;28;20549;-81
2023/09/07 10:19:24;;;;;;;4.00;3.60;;;24.90;99.90;;;;;;4977025;28;20073;-82
2023/09/07 10:21:52;;;;;;;4.05;3.65;;;24.90;99.90;;;;;;4973472;28;20053;-80
2023/09/07 10:24:36;;;;;;;4.72;3.40;;;25.00;99.90;;;;;;4976964;28;20039;-85
2023/09/07 10:27:07;;;;;;;5.07;3.88;;;25.00;99.90;;;;;;4977462;28;20049;-84
2023/09/07 10:29:52;;;;;;;3.90;3.40;;;25.10;99.90;;;;;;4993779;28;20205;-84
2023/09/07 10:32:18;;;;;;;3.38;3.08;;;25.10;99.90;;;;;;4966511;28;20034;-83
2023/09/07 10:34:44;;;;;;;4.18;3.78;;;25.10;99.90;;;;;;4979331;28;20137;-88
2023/09/07 10:37:14;;;;;;;3.45;3.17;;;25.20;99.90;;;;;;4984530;28;20494;-84
2023/09/07 10:39:43;;;;;;;3.97;3.45;;;25.20;99.90;;;;;;4979615;28;20058;-84
2023/09/07 10:42:08;;;;;;;4.97;3.88;;;25.20;99.90;;;;;;4970463;28;20042;-85
2023/09/07 10:44:34;;;;;;;4.03;3.55;;;25.20;99.90;;;;;;4978155;28;20486;-83
2023/09/07 10:47:00;;;;;;;7.85;3.67;;;25.20;99.90;;;;;;4970426;28;20038;-85
2023/09/07 10:49:25;;;;;;;4.10;3.58;;;25.30;99.90;;;;;;4978252;28;20100;-85
2023/09/07 10:51:51;;;;;;;3.75;3.35;;;25.30;99.90;;;;;;4984689;28;20462;-84
2023/09/07 10:54:18;;;;;;;5.43;3.30;;;25.30;99.90;;;;;;4972363;28;20086;-85
2023/09/07 10:56:45;;;;;;;6.43;3.28;;;25.40;99.90;;;;;;4981579;28;20072;-83
2023/09/07 10:59:14;;;;;;;4.72;3.13;;;25.40;99.90;;;;;;4970967;28;20023;-84
2023/09/07 11:01:40;;;;;;;3.70;3.40;;;25.40;99.90;;;;;;4987972;28;20110;-87
2023/09/07 11:04:08;;;;;;;3.85;3.45;;;25.40;99.90;;;;;;4990889;28;20050;-88
2023/09/07 11:06:34;;;;;;;3.53;3.22;;;25.50;99.90;;;;;;4978258;28;20061;-86
2023/09/07 11:09:03;;;;;;;4.50;2.83;;;25.50;99.90;;;;;;4975025;28;20042;-85
2023/09/07 11:11:29;;;;;;;3.67;3.33;;;25.50;99.90;;;;;;4974654;28;20118;-85
2023/09/07 11:13:57;;;;;;;3.92;3.30;;;25.50;99.90;;;;;;4980883;28;20095;-83
2023/09/07 11:16:27;;;;;;;2.92;2.67;;;25.50;99.90;;;;;;4974251;28;20027;-84
2023/09/07 11:18:54;;;;;;;3.63;3.33;;;25.50;99.90;;;;;;4972438;28;20022;-85
2023/09/07 11:21:20;;;;;;;3.60;3.30;;;25.50;99.90;;;;;;4972656;28;20482;-84
2023/09/07 11:23:46;;;;;;;3.05;2.80;;;25.60;99.90;;;;;;4985748;28;20026;-87
2023/09/07 11:26:12;;;;;;;5.88;3.00;;;25.60;99.90;;;;;;4987907;28;20026;-86
2023/09/07 11:28:38;;;;;;;3.28;3.00;;;25.70;99.90;;;;;;4976889;28;20027;-85
2023/09/07 11:31:04;;;;;;;4.03;3.17;;;25.70;99.90;;;;;;4986506;28;20053;-86
2023/09/07 11:33:33;;;;;;;3.45;3.15;;;25.70;99.90;;;;;;4990446;28;20026;-84
2023/09/07 11:35:59;;;;;;;4.07;3.00;;;25.80;99.90;;;;;;4983393;28;20420;-83
2023/09/07 11:38:34;;;;;;;2.95;2.72;;;25.80;99.90;;;;;;4980291;28;20050;-85
2023/09/07 11:41:00;;;;;;;3.00;2.70;;;25.80;99.90;;;;;;4971699;28;20035;-86
2023/09/07 11:43:25;;;;;;;3.00;2.70;;;25.80;99.90;;;;;;4970836;28;20114;-85
2023/09/07 11:45:51;;;;;;;3.10;2.72;;;25.90;99.90;;;;;;4987196;28;20027;-85
2023/09/07 11:48:17;;;;;;;3.20;2.67;;;25.90;99.90;;;;;;4992042;28;20018;-83
2023/09/07 11:50:43;;;;;;;2.90;2.60;;;25.90;99.90;;;;;;4980960;28;20026;-85
2023/09/07 11:53:09;;;;;;;2.88;2.63;;;26.00;99.80;;;;;;4981488;28;20540;-86
2023/09/07 11:55:35;;;;;;;2.63;2.33;;;26.00;99.90;;;;;;4986569;28;20034;-86
2023/09/07 11:58:07;;;;;;;2.88;2.33;;;26.00;99.90;;;;;;4981841;28;20061;-85
2023/09/07 12:00:32;;;;;;;2.97;2.70;;;26.10;99.90;;;;;;4981630;28;20038;-86
2023/09/07 12:02:59;;;;;;;4.50;2.88;;;26.10;99.90;;;;;;4990167;28;20019;-86
2023/09/07 12:05:24;;;;;;;3.25;2.70;;;26.10;99.90;;;;;;4979932;28;20018;-84
2023/09/07 12:07:50;;;;;;;3.08;2.88;;;26.20;99.90;;;;;;4987229;28;20088;-81
2023/09/07 12:10:16;;;;;;;3.00;2.80;;;26.20;99.90;;;;;;4975688;28;20031;-87
2023/09/07 12:12:43;;;;;;;6.07;2.60;;;26.20;99.90;;;;;;4992623;28;20154;-86
2023/09/07 12:15:11;;;;;;;3.92;2.40;;;26.30;99.90;;;;;;4991363;28;20559;-84
2023/09/07 12:17:40;;;;;;;3.15;2.78;;;26.30;99.90;;;;;;4991429;28;20033;-85
2023/09/07 12:20:10;;;;;;;3.42;3.13;;;26.30;99.90;;;;;;4982903;28;20089;-86
2023/09/07 12:22:37;;;;;;;4.10;2.60;;;26.30;99.90;;;;;;4972112;28;20027;-87
2023/09/07 12:25:06;;;;;;;3.05;2.75;;;26.30;99.40;;;;;;4983124;28;20015;-86
2023/09/07 12:27:34;;;;;;;2.85;2.60;;;26.40;99.70;;;;;;4972476;28;20027;-87
2023/09/07 12:30:08;;;;;;;4.47;2.80;;;26.40;99.80;;;;;;4976940;28;20034;-88
2023/09/07 12:32:33;;;;;;;3.17;2.72;;;26.40;99.90;;;;;;4981935;28;20039;-86
2023/09/07 12:34:59;;;;;;;4.18;2.95;;;26.50;99.90;;;;;;4987383;28;20037;-86
2023/09/07 12:37:25;;;;;;;3.50;3.08;;;26.50;99.10;;;;;;4985294;28;20062;-86
2023/09/07 12:39:51;;;;;;;2.75;2.55;;;26.60;99.10;;;;;;4990452;28;20019;-85
2023/09/07 12:42:17;;;;;;;4.15;2.80;;;26.60;98.70;;;;;;4981144;28;20023;-86
2023/09/07 12:44:43;;;;;;;3.20;2.80;;;26.70;98.20;;;;;;4994077;28;20009;-88